Time;durP1;ratioP1;P1;durP2;ratioP2;P2;SDS_P1;SDS_P2;PMS_P1;PMS_P2;Temp;Humidity;BMP_temperature;BMP_pressure;BME280_temperature;BME280_humidity;BME280_pressure;Samples;Min_cycle;Max_cycle;Signal;HPM_P1;HPM_P2
2023/07/21 00:01:04;;;;;;;;;;;;;;;23.61;34.08;99603.72;6156396;23;19912;-67
2023/07/21 00:03:30;;;;;;;;;;;;;;;23.63;34.24;99606.16;6156344;23;19924;-68
2023/07/21 00:05:57;;;;;;;;;;;;;;;23.52;34.42;99603.59;6156441;23;20323;-68
2023/07/21 00:08:24;;;;;;;;;;;;;;;23.53;34.63;99607.97;6156493;23;19916;-68
2023/07/21 00:10:50;;;;;;;;;;;;;;;23.50;34.65;99608.56;6156327;23;19916;-68
2023/07/21 00:13:15;;;;;;;;;;;;;;;23.39;34.41;99598.88;6156399;23;19908;-68
2023/07/21 00:15:40;;;;;;;;;;;;;;;23.32;34.26;99602.00;6156374;23;19912;-68
2023/07/21 00:18:06;;;;;;;;;;;;;;;23.26;34.13;99603.22;6156419;23;19963;-69
2023/07/21 00:20:32;;;;;;;;;;;;;;;23.25;34.55;99603.50;6130662;23;19913;-68
2023/07/21 00:22:58;;;;;;;;;;;;;;;23.15;34.55;99599.81;6156418;23;19909;-68
2023/07/21 00:25:24;;;;;;;;;;;;;;;23.14;35.06;99600.13;6156160;23;19936;-68
2023/07/21 00:27:49;;;;;;;;;;;;;;;23.12;34.92;99592.22;6156596;23;20222;-68
2023/07/21 00:30:14;;;;;;;;;;;;;;;23.14;34.91;99595.47;6156152;23;19909;-68
2023/07/21 00:32:41;;;;;;;;;;;;;;;23.11;34.74;99584.31;6130182;23;19908;-68
2023/07/21 00:35:08;;;;;;;;;;;;;;;23.08;35.13;99591.16;6156144;23;20310;-68
2023/07/21 00:37:34;;;;;;;;;;;;;;;23.09;35.05;99597.47;6156470;23;20262;-68
2023/07/21 00:39:59;;;;;;;;;;;;;;;23.10;35.20;99593.63;6156570;23;19908;-68
2023/07/21 00:42:25;;;;;;;;;;;;;;;23.07;34.99;99588.72;6156451;23;19956;-68
2023/07/21 00:44:50;;;;;;;;;;;;;;;22.96;34.94;99596.28;6156108;23;19915;-68
2023/07/21 00:47:15;;;;;;;;;;;;;;;22.97;35.49;99593.25;6154899;23;19959;-68
2023/07/21 00:49:41;;;;;;;;;;;;;;;23.00;34.78;99591.81;6156317;23;19915;-68
2023/07/21 00:52:09;;;;;;;;;;;;;;;22.99;35.41;99591.03;6156137;23;19908;-68
2023/07/21 00:54:34;;;;;;;;;;;;;;;22.94;35.02;99588.34;6155690;23;19924;-68
2023/07/21 00:57:00;;;;;;;;;;;;;;;22.94;35.50;99593.84;6156243;23;20015;-68
2023/07/21 00:59:25;;;;;;;;;;;;;;;22.89;34.94;99591.16;6156250;23;19909;-68
2023/07/21 01:01:52;;;;;;;;;;;;;;;22.76;34.93;99589.97;6155932;23;19921;-68
2023/07/21 01:04:17;;;;;;;;;;;;;;;22.71;35.09;99594.72;6155931;23;20191;-68
2023/07/21 01:06:43;;;;;;;;;;;;;;;22.74;34.83;99594.13;6155749;23;19991;-68
2023/07/21 01:09:10;;;;;;;;;;;;;;;22.65;34.82;99591.25;6156197;23;19909;-68
2023/07/21 01:11:36;;;;;;;;;;;;;;;22.59;35.42;99590.50;6155846;23;19944;-68
2023/07/21 01:14:03;;;;;;;;;;;;;;;22.57;35.08;99592.72;6155627;23;19948;-68
2023/07/21 01:16:28;;;;;;;;;;;;;;;22.50;35.29;99589.53;6155812;23;19974;-68
2023/07/21 01:18:55;;;;;;;;;;;;;;;22.45;35.04;99591.53;6155774;23;19909;-68
2023/07/21 01:21:45;;;;;;;;;;;;;;;22.49;35.67;99587.94;6155845;23;19908;-69
2023/07/21 01:24:23;;;;;;;;;;;;;;;22.58;35.45;99586.16;6155705;23;19916;-68
2023/07/21 01:26:49;;;;;;;;;;;;;;;22.55;35.29;99591.41;6129507;23;20351;-68
2023/07/21 01:29:16;;;;;;;;;;;;;;;22.52;35.24;99590.06;6155498;23;20222;-68
2023/07/21 01:31:42;;;;;;;;;;;;;;;22.39;35.18;99588.84;6155994;23;19960;-68
2023/07/21 01:34:09;;;;;;;;;;;;;;;22.34;35.14;99591.69;6155496;23;20326;-69
2023/07/21 01:36:36;;;;;;;;;;;;;;;22.28;35.35;99597.50;6155593;23;19959;-68
2023/07/21 01:39:01;;;;;;;;;;;;;;;22.21;35.20;99589.59;6155548;23;19919;-68
2023/07/21 01:41:27;;;;;;;;;;;;;;;22.15;35.44;99585.31;6155609;23;19944;-68
2023/07/21 01:43:53;;;;;;;;;;;;;;;22.20;35.77;99590.72;6155495;23;19908;-68
2023/07/21 01:46:18;;;;;;;;;;;;;;;22.23;35.65;99587.38;6155462;23;19963;-68
2023/07/21 01:48:45;;;;;;;;;;;;;;;22.27;35.45;99587.66;6155545;23;19987;-68
2023/07/21 01:51:10;;;;;;;;;;;;;;;22.29;35.37;99585.44;6155742;23;19916;-68
2023/07/21 01:53:39;;;;;;;;;;;;;;;22.22;35.33;99588.50;6155264;23;20219;-68
2023/07/21 01:56:18;;;;;;;;;;;;;;;22.11;35.50;99596.03;6155338;23;20369;-68
2023/07/21 01:58:44;;;;;;;;;;;;;;;22.06;35.36;99595.25;6155266;23;19908;-68
2023/07/21 02:01:11;;;;;;;;;;;;;;;22.00;35.42;99597.25;6129568;23;20211;-68
2023/07/21 02:03:38;;;;;;;;;;;;;;;21.95;35.51;99587.19;6154864;23;19924;-68
2023/07/21 02:06:15;;;;;;;;;;;;;;;21.98;35.89;99591.25;6155539;23;19916;-68
2023/07/21 02:08:41;;;;;;;;;;;;;;;21.99;35.57;99587.41;6129008;23;19963;-68
2023/07/21 02:11:06;;;;;;;;;;;;;;;21.97;35.73;99586.88;6155179;23;20310;-68
2023/07/21 02:13:31;;;;;;;;;;;;;;;21.92;35.80;99589.69;6155059;23;19919;-68
2023/07/21 02:15:57;;;;;;;;;;;;;;;21.85;35.84;99587.31;6155041;23;19908;-68
2023/07/21 02:18:22;;;;;;;;;;;;;;;21.83;35.84;99589.50;6155050;23;19908;-68
2023/07/21 02:20:47;;;;;;;;;;;;;;;21.80;35.82;99585.44;6129190;23;19916;-68
2023/07/21 02:23:13;;;;;;;;;;;;;;;21.77;35.80;99591.50;6129080;23;20222;-68
2023/07/21 02:25:38;;;;;;;;;;;;;;;21.73;35.56;99595.91;6154993;23;19913;-68
2023/07/21 02:28:03;;;;;;;;;;;;;;;21.75;35.62;99593.69;6155222;23;20021;-68
2023/07/21 02:30:29;;;;;;;;;;;;;;;21.73;35.71;99593.19;6155200;23;19908;-68
2023/07/21 02:32:54;;;;;;;;;;;;;;;21.69;36.09;99589.38;6155102;23;19964;-68
2023/07/21 02:35:19;;;;;;;;;;;;;;;21.68;35.65;99587.75;6155442;23;19909;-68
2023/07/21 02:37:46;;;;;;;;;;;;;;;21.65;35.67;99589.13;6155535;23;19908;-67
2023/07/21 02:40:12;;;;;;;;;;;;;;;21.60;35.98;99583.75;6155057;23;19979;-67
2023/07/21 02:42:37;;;;;;;;;;;;;;;21.60;35.91;99589.19;6155127;23;19908;-67
2023/07/21 02:45:04;;;;;;;;;;;;;;;21.59;35.96;99590.28;6155022;23;19996;-67
2023/07/21 02:47:30;;;;;;;;;;;;;;;21.57;35.89;99587.03;6155784;23;19955;-67
2023/07/21 02:49:55;;;;;;;;;;;;;;;21.54;35.91;99593.06;6157468;23;19909;-68
2023/07/21 02:52:21;;;;;;;;;;;;;;;21.56;35.97;99585.44;6157109;23;20235;-68
2023/07/21 02:54:46;;;;;;;;;;;;;;;21.59;36.13;99582.09;6157137;23;19996;-68
2023/07/21 02:57:11;;;;;;;;;;;;;;;21.59;35.99;99589.50;6157216;23;19913;-68
2023/07/21 02:59:37;;;;;;;;;;;;;;;21.60;36.29;99586.47;6130857;23;19909;-68
2023/07/21 03:02:02;;;;;;;;;;;;;;;21.67;36.49;99586.13;6156690;23;19920;-67
2023/07/21 03:04:28;;;;;;;;;;;;;;;21.76;36.35;99580.84;6156334;23;20314;-68
2023/07/21 03:06:54;;;;;;;;;;;;;;;21.71;36.43;99580.88;6156874;23;19944;-68
2023/07/21 03:09:19;;;;;;;;;;;;;;;21.64;36.48;99592.19;6130448;23;19909;-68
2023/07/21 03:11:45;;;;;;;;;;;;;;;21.60;36.23;99588.38;6156713;23;19908;-69
2023/07/21 03:14:10;;;;;;;;;;;;;;;21.61;36.26;99601.75;6156929;23;19908;-67
2023/07/21 03:16:36;;;;;;;;;;;;;;;21.65;36.25;99591.88;6157194;23;19912;-67
2023/07/21 03:19:01;;;;;;;;;;;;;;;21.64;36.66;99592.97;6156814;23;20258;-68
2023/07/21 03:21:27;;;;;;;;;;;;;;;21.69;36.64;99589.38;6157126;23;19909;-67
2023/07/21 03:23:52;;;;;;;;;;;;;;;21.69;36.58;99588.56;6157037;23;19912;-67
2023/07/21 03:26:17;;;;;;;;;;;;;;;21.73;36.29;99590.44;6156734;23;19909;-68
2023/07/21 03:28:43;;;;;;;;;;;;;;;21.66;36.46;99592.69;6156970;23;20090;-68
2023/07/21 03:31:11;;;;;;;;;;;;;;;21.66;36.22;99589.97;6156346;23;20242;-68
2023/07/21 03:33:37;;;;;;;;;;;;;;;21.63;36.34;99596.00;6156803;23;19909;-68
2023/07/21 03:36:04;;;;;;;;;;;;;;;21.58;36.19;99598.78;6156745;23;19956;-68
2023/07/21 03:38:31;;;;;;;;;;;;;;;21.56;36.67;99600.97;6156887;23;19972;-68
2023/07/21 03:41:02;;;;;;;;;;;;;;;21.58;36.51;99598.78;6156339;23;20534;-68
2023/07/21 03:43:28;;;;;;;;;;;;;;;21.60;36.39;99600.13;6156316;23;20317;-68
2023/07/21 03:46:00;;;;;;;;;;;;;;;21.56;36.48;99599.09;6130632;23;19908;-68
2023/07/21 03:48:26;;;;;;;;;;;;;;;21.56;36.24;99603.72;6156239;23;19909;-68
2023/07/21 03:50:55;;;;;;;;;;;;;;;21.51;36.54;99603.75;6157042;23;20353;-67
2023/07/21 03:53:21;;;;;;;;;;;;;;;21.48;36.58;99604.34;6157151;23;19912;-67
2023/07/21 03:55:47;;;;;;;;;;;;;;;21.48;36.47;99602.44;6156369;23;20003;-67
2023/07/21 03:58:13;;;;;;;;;;;;;;;21.53;36.51;99602.38;6130522;23;20291;-67
2023/07/21 04:00:42;;;;;;;;;;;;;;;21.54;36.64;99598.53;6130370;23;19909;-67
2023/07/21 04:03:07;;;;;;;;;;;;;;;21.56;36.34;99600.97;6156116;23;19916;-67
2023/07/21 04:05:32;;;;;;;;;;;;;;;21.55;36.35;99594.72;6156433;23;19912;-67
2023/07/21 04:07:57;;;;;;;;;;;;;;;21.52;36.54;99602.66;6130501;23;19916;-67
2023/07/21 04:10:23;;;;;;;;;;;;;;;21.59;36.52;99597.69;6156218;23;19909;-67
2023/07/21 04:12:48;;;;;;;;;;;;;;;21.59;36.52;99597.69;6131165;23;19916;-67
2023/07/21 04:15:13;;;;;;;;;;;;;;;21.61;36.45;99603.66;6156782;23;19916;-67
2023/07/21 04:17:39;;;;;;;;;;;;;;;21.61;36.79;99599.00;6156845;23;19908;-67
2023/07/21 04:20:05;;;;;;;;;;;;;;;21.62;36.84;99606.13;6156656;23;19943;-67
2023/07/21 04:22:30;;;;;;;;;;;;;;;21.59;36.53;99603.16;6157001;23;19931;-67
2023/07/21 04:24:58;;;;;;;;;;;;;;;21.61;36.82;99600.94;6156948;23;20332;-68
2023/07/21 04:27:23;;;;;;;;;;;;;;;21.63;36.77;99599.53;6130716;23;19991;-68
2023/07/21 04:29:48;;;;;;;;;;;;;;;21.63;36.76;99604.19;6157024;23;20385;-68
2023/07/21 04:32:13;;;;;;;;;;;;;;;21.62;36.84;99605.31;6157028;23;19932;-68
2023/07/21 04:34:39;;;;;;;;;;;;;;;21.62;36.70;99608.03;6156860;23;19958;-68
2023/07/21 04:37:04;;;;;;;;;;;;;;;21.64;36.62;99608.56;6130808;23;19908;-68
2023/07/21 04:39:29;;;;;;;;;;;;;;;21.68;36.79;99608.81;6156247;23;20278;-68
2023/07/21 04:41:55;;;;;;;;;;;;;;;21.71;36.69;99603.59;6156018;23;19991;-68
2023/07/21 04:44:20;;;;;;;;;;;;;;;21.76;36.93;99611.72;6156203;23;19992;-68
2023/07/21 04:46:46;;;;;;;;;;;;;;;21.80;36.80;99604.59;6155124;23;19917;-67
2023/07/21 04:49:13;;;;;;;;;;;;;;;21.84;36.79;99600.16;6156103;23;19913;-67
2023/07/21 04:51:38;;;;;;;;;;;;;;;21.87;36.80;99606.97;6155801;23;20246;-67
2023/07/21 04:54:03;;;;;;;;;;;;;;;21.90;36.87;99600.09;6156085;23;19908;-67
2023/07/21 04:56:29;;;;;;;;;;;;;;;21.92;37.05;99606.91;6156078;23;19915;-68
2023/07/21 04:58:54;;;;;;;;;;;;;;;21.94;36.69;99610.16;6156203;23;20261;-67
2023/07/21 05:01:20;;;;;;;;;;;;;;;21.93;37.16;99610.44;6155751;23;19909;-67
2023/07/21 05:03:45;;;;;;;;;;;;;;;21.93;36.90;99604.97;6155497;23;19991;-67
2023/07/21 05:06:10;;;;;;;;;;;;;;;21.93;36.79;99604.97;6155521;23;19919;-67
2023/07/21 05:08:36;;;;;;;;;;;;;;;22.01;36.58;99607.91;6155686;23;19915;-67
2023/07/21 05:11:01;;;;;;;;;;;;;;;22.00;36.66;99606.25;6129515;23;19912;-69
2023/07/21 05:13:26;;;;;;;;;;;;;;;21.97;36.79;99612.31;6155854;23;19916;-68
2023/07/21 05:15:51;;;;;;;;;;;;;;;21.96;36.45;99607.94;6155949;23;20295;-69
2023/07/21 05:18:17;;;;;;;;;;;;;;;21.98;36.68;99615.88;6156167;23;19909;-69
2023/07/21 05:20:42;;;;;;;;;;;;;;;21.97;36.74;99608.75;6156310;23;19915;-69
2023/07/21 05:23:09;;;;;;;;;;;;;;;22.00;36.41;99610.91;6129877;23;20222;-69
2023/07/21 05:25:34;;;;;;;;;;;;;;;22.02;36.43;99614.19;6155721;23;19967;-69
2023/07/21 05:27:59;;;;;;;;;;;;;;;22.01;36.70;99610.63;6156047;23;19909;-69
2023/07/21 05:30:25;;;;;;;;;;;;;;;22.02;36.82;99611.44;6155606;23;19937;-69
2023/07/21 05:32:50;;;;;;;;;;;;;;;22.01;36.99;99612.56;6155552;23;19916;-69
2023/07/21 05:35:15;;;;;;;;;;;;;;;22.01;36.95;99610.63;6155903;23;19909;-69
2023/07/21 05:37:41;;;;;;;;;;;;;;;22.04;37.06;99614.69;6155666;23;19916;-69
2023/07/21 05:40:08;;;;;;;;;;;;;;;;;;6155482;23;19908;-69
2023/07/21 05:42:33;;;;;;;;;;;;;;;22.08;37.08;99620.41;6155633;23;19940;-69
2023/07/21 05:44:58;;;;;;;;;;;;;;;22.06;37.16;99609.75;6155737;23;20206;-69
2023/07/21 05:47:23;;;;;;;;;;;;;;;22.09;37.01;99614.66;6154821;23;20012;-67
2023/07/21 05:49:49;;;;;;;;;;;;;;;22.13;36.73;99615.69;6155509;23;19963;-67
2023/07/21 05:52:14;;;;;;;;;;;;;;;22.19;37.00;99622.75;6155724;23;19908;-67
2023/07/21 05:54:41;;;;;;;;;;;;;;;22.23;37.23;99615.56;6155320;23;20347;-67
2023/07/21 05:57:06;;;;;;;;;;;;;;;22.19;37.51;99613.69;6155644;23;20306;-68
2023/07/21 05:59:32;;;;;;;;;;;;;;;22.32;36.99;99610.28;6155397;23;19963;-67
2023/07/21 06:01:58;;;;;;;;;;;;;;;22.37;37.32;99610.22;6155188;23;19948;-67
2023/07/21 06:04:23;;;;;;;;;;;;;;;22.48;36.70;99613.66;6155361;23;20301;-67
2023/07/21 06:06:48;;;;;;;;;;;;;;;22.57;36.71;99611.88;6155687;23;19915;-68
2023/07/21 06:09:14;;;;;;;;;;;;;;;22.70;36.54;99607.59;6155314;23;19909;-67
2023/07/21 06:11:39;;;;;;;;;;;;;;;22.77;36.71;99610.78;6155286;23;20275;-67
2023/07/21 06:14:07;;;;;;;;;;;;;;;22.83;36.46;99610.72;6155231;23;19919;-67
2023/07/21 06:16:32;;;;;;;;;;;;;;;22.90;36.55;99614.72;6155570;23;19984;-67
2023/07/21 06:18:59;;;;;;;;;;;;;;;22.99;36.27;99618.41;6155455;23;20306;-67
2023/07/21 06:21:25;;;;;;;;;;;;;;;23.03;36.31;99615.06;6154546;23;19964;-67
2023/07/21 06:23:51;;;;;;;;;;;;;;;23.04;36.34;99614.78;6154931;23;19916;-67
2023/07/21 06:26:16;;;;;;;;;;;;;;;23.05;36.42;99615.59;6154961;23;19908;-67
2023/07/21 06:28:41;;;;;;;;;;;;;;;23.04;36.03;99611.25;6128695;23;19913;-67
2023/07/21 06:31:08;;;;;;;;;;;;;;;23.12;36.09;99607.81;6154734;23;19917;-67
2023/07/21 06:33:33;;;;;;;;;;;;;;;23.10;36.23;99607.31;6155107;23;19912;-67
2023/07/21 06:35:59;;;;;;;;;;;;;;;23.11;36.31;99611.69;6154963;23;20327;-67
2023/07/21 06:38:24;;;;;;;;;;;;;;;23.18;36.30;99612.13;6155169;23;19908;-67
2023/07/21 06:40:51;;;;;;;;;;;;;;;23.22;35.89;99606.88;6155179;23;19909;-67
2023/07/21 06:43:17;;;;;;;;;;;;;;;23.27;35.78;99607.59;6155485;23;20306;-66
2023/07/21 06:45:43;;;;;;;;;;;;;;;23.26;35.76;99608.69;6155522;23;19912;-66
2023/07/21 06:48:08;;;;;;;;;;;;;;;23.31;35.74;99610.53;6154214;23;19908;-67
2023/07/21 06:50:33;;;;;;;;;;;;;;;23.33;35.23;99611.88;6154873;23;19956;-68
2023/07/21 06:52:58;;;;;;;;;;;;;;;23.36;35.42;99610.44;6155174;23;19935;-67
2023/07/21 06:55:24;;;;;;;;;;;;;;;23.43;35.59;99607.31;6155072;23;19963;-67
2023/07/21 06:57:49;;;;;;;;;;;;;;;23.42;35.59;99611.16;6155149;23;20277;-67
2023/07/21 07:00:16;;;;;;;;;;;;;;;23.48;36.02;99616.28;6155195;23;19987;-67
2023/07/21 07:02:47;;;;;;;;;;;;;;;23.57;36.09;99616.41;6155105;23;20345;-67
2023/07/21 07:05:12;;;;;;;;;;;;;;;23.57;36.22;99614.47;6155235;23;19923;-67
2023/07/21 07:07:38;;;;;;;;;;;;;;;23.67;36.04;99616.19;6155133;23;19908;-67
2023/07/21 07:10:03;;;;;;;;;;;;;;;23.68;35.93;99620.59;6128976;23;19908;-67
2023/07/21 07:12:28;;;;;;;;;;;;;;;23.79;36.29;99621.22;6155095;23;19967;-67
2023/07/21 07:14:54;;;;;;;;;;;;;;;23.90;35.91;99622.69;6128876;23;19913;-67
2023/07/21 07:17:19;;;;;;;;;;;;;;;24.02;35.72;99618.63;6154813;23;19908;-68
2023/07/21 07:19:45;;;;;;;;;;;;;;;24.09;35.33;99619.84;6154542;23;19996;-68
2023/07/21 07:22:10;;;;;;;;;;;;;;;24.21;35.75;99621.25;6154648;23;19915;-68
2023/07/21 07:24:36;;;;;;;;;;;;;;;24.27;35.31;99615.34;6154720;23;19920;-66
2023/07/21 07:27:01;;;;;;;;;;;;;;;24.31;35.07;99619.13;6154682;23;19914;-67
2023/07/21 07:29:27;;;;;;;;;;;;;;;24.39;34.83;99611.28;6154869;23;19908;-66
2023/07/21 07:31:52;;;;;;;;;;;;;;;24.51;34.89;99614.31;6128564;23;19913;-66
2023/07/21 07:34:17;;;;;;;;;;;;;;;24.62;35.02;99615.75;6156509;23;19963;-66
2023/07/21 07:36:43;;;;;;;;;;;;;;;24.63;34.40;99617.38;6156583;23;20388;-66
2023/07/21 07:39:11;;;;;;;;;;;;;;;24.73;34.90;99619.88;6155107;23;19923;-68
2023/07/21 07:41:37;;;;;;;;;;;;;;;24.86;35.05;99622.91;6154602;23;19959;-67
2023/07/21 07:44:02;;;;;;;;;;;;;;;24.72;34.65;99625.66;6154553;23;19917;-66
2023/07/21 07:46:27;;;;;;;;;;;;;;;24.93;34.14;99626.03;6154116;23;19908;-66
2023/07/21 07:48:53;;;;;;;;;;;;;;;25.14;34.03;99626.38;6154960;23;19959;-66
2023/07/21 07:51:18;;;;;;;;;;;;;;;25.24;33.73;99620.66;6154845;23;19916;-65
2023/07/21 07:53:43;;;;;;;;;;;;;;;25.33;33.74;99617.16;6155989;23;19909;-66
2023/07/21 07:56:12;;;;;;;;;;;;;;;25.37;33.82;99624.47;6156496;23;20267;-66
2023/07/21 07:58:38;;;;;;;;;;;;;;;25.43;33.68;99622.41;6130776;23;20211;-66
2023/07/21 08:01:03;;;;;;;;;;;;;;;25.50;33.98;99620.84;6156273;23;20007;-66
2023/07/21 08:03:29;;;;;;;;;;;;;;;25.49;33.16;99619.19;6155774;23;19944;-66
2023/07/21 08:05:54;;;;;;;;;;;;;;;25.45;32.89;99622.91;6155782;23;19913;-66
2023/07/21 08:08:22;;;;;;;;;;;;;;;25.58;33.53;99615.69;6155914;23;19916;-66
2023/07/21 08:10:47;;;;;;;;;;;;;;;25.71;33.06;99622.25;6156162;23;19965;-66
2023/07/21 08:13:13;;;;;;;;;;;;;;;25.81;32.74;99625.50;6156192;23;19972;-66
2023/07/21 08:15:38;;;;;;;;;;;;;;;25.81;32.91;99621.97;6156621;23;19909;-66
2023/07/21 08:18:04;;;;;;;;;;;;;;;25.87;32.08;99623.44;6156662;23;19908;-66
2023/07/21 08:20:29;;;;;;;;;;;;;;;25.93;32.67;99624.97;6156512;23;20307;-66
2023/07/21 08:22:54;;;;;;;;;;;;;;;25.87;32.31;99624.25;6156226;23;19909;-66
2023/07/21 08:25:20;;;;;;;;;;;;;;;25.96;32.06;99629.00;6156605;23;19913;-66
2023/07/21 08:27:45;;;;;;;;;;;;;;;25.96;31.07;99629.81;6156329;23;19916;-65
2023/07/21 08:30:11;;;;;;;;;;;;;;;26.02;31.62;99625.81;6156419;23;19970;-65
2023/07/21 08:32:38;;;;;;;;;;;;;;;26.14;31.83;99627.16;6156370;23;20267;-65
2023/07/21 08:35:04;;;;;;;;;;;;;;;26.29;31.84;99629.44;6156242;23;20311;-65
2023/07/21 08:37:30;;;;;;;;;;;;;;;26.43;31.68;99632.09;6156325;23;19909;-65
2023/07/21 08:39:55;;;;;;;;;;;;;;;26.56;31.17;99631.16;6156114;23;20211;-65
2023/07/21 08:42:21;;;;;;;;;;;;;;;26.55;31.16;99631.47;6156132;23;19916;-65
2023/07/21 08:44:47;;;;;;;;;;;;;;;26.80;31.30;99627.13;6155680;23;20322;-65
2023/07/21 08:47:13;;;;;;;;;;;;;;;27.09;31.39;99629.25;6155534;23;19987;-65
2023/07/21 08:49:40;;;;;;;;;;;;;;;27.30;30.85;99631.38;6156149;23;19943;-65
2023/07/21 08:52:06;;;;;;;;;;;;;;;27.47;30.14;99639.66;6129897;23;20314;-67
2023/07/21 08:54:31;;;;;;;;;;;;;;;27.53;29.47;99632.00;6155858;23;19994;-65
2023/07/21 08:56:56;;;;;;;;;;;;;;;27.66;30.35;99628.22;6155812;23;19964;-65
2023/07/21 08:59:22;;;;;;;;;;;;;;;27.90;30.67;99630.47;6156178;23;19912;-66
2023/07/21 09:01:47;;;;;;;;;;;;;;;28.03;29.67;99623.09;6155741;23;20362;-65
2023/07/21 09:04:18;;;;;;;;;;;;;;;27.86;29.51;99620.38;6156325;23;19912;-65
2023/07/21 09:06:54;;;;;;;;;;;;;;;27.94;29.55;99620.38;6155723;23;19992;-65
2023/07/21 09:09:20;;;;;;;;;;;;;;;27.81;30.04;99627.69;6155838;23;20259;-65
2023/07/21 09:11:46;;;;;;;;;;;;;;;27.68;35.97;99625.16;6156123;23;19909;-66
2023/07/21 09:14:11;;;;;;;;;;;;;;;27.37;37.58;99634.44;6156050;23;19915;-66
2023/07/21 09:16:40;;;;;;;;;;;;;;;27.23;37.56;99629.09;6155100;23;20234;-66
2023/07/21 09:19:05;;;;;;;;;;;;;;;27.22;37.45;99628.28;6155040;23;19916;-66
2023/07/21 09:21:31;;;;;;;;;;;;;;;27.17;37.44;99627.63;6155080;23;19908;-66
2023/07/21 09:24:06;;;;;;;;;;;;;;;27.22;38.36;99621.97;6155243;23;19971;-66
2023/07/21 09:26:31;;;;;;;;;;;;;;;27.31;36.70;99617.28;6155864;23;19909;-65
2023/07/21 09:28:57;;;;;;;;;;;;;;;27.21;33.48;99621.16;6156009;23;19955;-65
2023/07/21 09:31:33;;;;;;;;;;;;;;;27.20;35.96;99622.28;6155813;23;20152;-65
2023/07/21 09:34:05;;;;;;;;;;;;;;;27.13;34.34;99618.41;6155882;23;19920;-65
2023/07/21 09:36:31;;;;;;;;;;;;;;;27.20;35.04;99625.03;6129324;23;19916;-66
2023/07/21 09:39:00;;;;;;;;;;;;;;;27.31;35.33;99624.75;6155413;23;20262;-66
2023/07/21 09:41:25;;;;;;;;;;;;;;;27.55;36.37;99624.22;6155589;23;20024;-66
2023/07/21 09:43:51;;;;;;;;;;;;;;;27.57;34.33;99624.69;6155296;23;19916;-66
2023/07/21 09:46:17;;;;;;;;;;;;;;;27.67;34.34;99620.75;6155090;23;19908;-65
2023/07/21 09:48:44;;;;;;;;;;;;;;;27.67;33.78;99618.00;6154632;23;20352;-65
2023/07/21 09:51:10;;;;;;;;;;;;;;;27.80;34.57;99614.22;6155404;23;19913;-65
2023/07/21 09:53:45;;;;;;;;;;;;;;;27.95;35.15;99613.72;6155377;23;20222;-64
2023/07/21 09:56:11;;;;;;;;;;;;;;;28.01;34.28;99611.59;6155000;23;19937;-65
2023/07/21 09:58:50;;;;;;;;;;;;;;;28.11;34.08;99608.44;6155190;23;19909;-65
2023/07/21 10:01:16;;;;;;;;;;;;;;;28.09;32.12;99607.16;6154706;23;19984;-66
2023/07/21 10:03:44;;;;;;;;;;;;;;;28.24;33.05;99600.25;6154594;23;19917;-66
2023/07/21 10:06:09;;;;;;;;;;;;;;;28.42;32.90;99609.22;6154877;23;19912;-66
2023/07/21 10:08:36;;;;;;;;;;;;;;;28.52;32.30;99606.09;6155038;23;19908;-66
2023/07/21 10:11:03;;;;;;;;;;;;;;;28.51;29.68;99604.47;6128412;23;19908;-66
2023/07/21 10:13:29;;;;;;;;;;;;;;;28.57;30.56;99603.16;6154786;23;20219;-66
2023/07/21 10:15:59;;;;;;;;;;;;;;;28.82;32.78;99606.88;6155280;23;20212;-66
2023/07/21 10:18:24;;;;;;;;;;;;;;;29.08;32.39;99603.88;6155039;23;20342;-66
2023/07/21 10:20:53;;;;;;;;;;;;;;;29.16;30.42;99616.06;6155035;23;19991;-66
2023/07/21 10:23:24;;;;;;;;;;;;;;;29.31;31.98;99614.63;6154869;23;19915;-66
2023/07/21 10:25:58;;;;;;;;;;;;;;;29.54;29.58;99623.31;6154703;23;20237;-66
2023/07/21 10:28:30;;;;;;;;;;;;;;;29.52;29.48;99626.41;6154737;23;19975;-66
2023/07/21 10:31:15;;;;;;;;;;;;;;;29.51;28.44;99624.00;6154940;23;19908;-66
2023/07/21 10:33:40;;;;;;;;;;;;;;;29.39;28.57;99623.97;6154525;23;20278;-66
2023/07/21 10:36:12;;;;;;;;;;;;;;;29.53;28.89;99614.22;6154940;23;19909;-66
2023/07/21 10:38:40;;;;;;;;;;;;;;;29.64;29.44;99616.53;6155178;23;20330;-66
2023/07/21 10:41:05;;;;;;;;;;;;;;;29.60;27.81;99612.84;6154895;23;20319;-65
2023/07/21 10:43:32;;;;;;;;;;;;;;;29.62;27.25;99616.88;6154878;23;19908;-66
2023/07/21 10:45:57;;;;;;;;;;;;;;;29.72;30.08;99619.22;6155307;23;19971;-66
2023/07/21 10:48:25;;;;;;;;;;;;;;;29.95;29.66;99618.00;6154424;23;20321;-66
2023/07/21 10:50:58;;;;;;;;;;;;;;;30.15;29.37;99616.28;6155104;23;20001;-66
2023/07/21 10:53:24;;;;;;;;;;;;;;;30.44;28.11;99620.78;6155301;23;19948;-65
2023/07/21 10:55:50;;;;;;;;;;;;;;;30.68;28.64;99622.69;6155244;23;19909;-65
2023/07/21 10:58:16;;;;;;;;;;;;;;;31.04;27.13;99607.97;6129699;23;19909;-66
2023/07/21 11:00:48;;;;;;;;;;;;;;;31.14;27.83;99608.63;6155076;23;20036;-66
2023/07/21 11:03:14;;;;;;;;;;;;;;;31.20;27.02;99612.72;6154903;23;19919;-66
2023/07/21 11:05:40;;;;;;;;;;;;;;;31.42;26.46;99612.16;6154889;23;19912;-66
2023/07/21 11:08:05;;;;;;;;;;;;;;;31.39;25.65;99606.50;6156211;23;19916;-66
2023/07/21 11:10:34;;;;;;;;;;;;;;;31.48;27.22;99614.72;6131025;23;20306;-66
2023/07/21 11:13:00;;;;;;;;;;;;;;;31.59;26.35;99607.47;6157242;23;19991;-66
2023/07/21 11:15:26;;;;;;;;;;;;;;;31.59;25.79;99604.69;6157192;23;19909;-66
2023/07/21 11:18:03;;;;;;;;;;;;;;;31.62;27.18;99609.53;6156877;23;20307;-66
2023/07/21 11:20:29;;;;;;;;;;;;;;;31.68;28.36;99607.31;6156545;23;19909;-66
2023/07/21 11:22:54;;;;;;;;;;;;;;;31.84;26.36;99605.34;6156939;23;19995;-65
2023/07/21 11:25:20;;;;;;;;;;;;;;;31.89;26.60;99609.81;6156781;23;19920;-65
2023/07/21 11:27:48;;;;;;;;;;;;;;;32.00;26.17;99603.38;6156489;23;20310;-66
2023/07/21 11:30:17;;;;;;;;;;;;;;;32.17;26.79;99613.34;6157102;23;20281;-66
2023/07/21 11:32:43;;;;;;;;;;;;;;;32.49;26.81;99613.25;6156798;23;19913;-66
2023/07/21 11:35:08;;;;;;;;;;;;;;;32.73;25.38;99612.22;6156829;23;19908;-66
2023/07/21 11:37:40;;;;;;;;;;;;;;;32.94;24.67;99614.66;6156782;23;20269;-66
2023/07/21 11:40:15;;;;;;;;;;;;;;;33.20;25.78;99616.00;6156665;23;19909;-66
2023/07/21 11:42:44;;;;;;;;;;;;;;;33.43;26.13;99604.09;6157093;23;20047;-66
2023/07/21 11:45:28;;;;;;;;;;;;;;;33.59;24.73;99613.13;6156650;23;20027;-67
2023/07/21 11:47:53;;;;;;;;;;;;;;;33.74;23.72;99609.44;6129680;23;20315;-67
2023/07/21 11:50:19;;;;;;;;;;;;;;;33.73;25.13;99607.06;6156661;23;19909;-67
2023/07/21 11:52:46;;;;;;;;;;;;;;;33.81;24.81;99606.00;6156581;23;19912;-66
2023/07/21 11:55:12;;;;;;;;;;;;;;;33.86;22.67;99605.69;6156747;23;20277;-66
2023/07/21 11:57:37;;;;;;;;;;;;;;;33.97;22.72;99603.06;6156907;23;19908;-66
2023/07/21 12:00:11;;;;;;;;;;;;;;;34.06;24.66;99600.81;6156626;23;19919;-66
2023/07/21 12:02:36;;;;;;;;;;;;;;;34.23;24.06;99605.13;6156426;23;19924;-66
2023/07/21 12:05:02;;;;;;;;;;;;;;;34.38;24.28;99608.91;6156448;23;19917;-66
2023/07/21 12:07:27;;;;;;;;;;;;;;;34.58;23.77;99614.34;6156389;23;20211;-66
2023/07/21 12:09:54;;;;;;;;;;;;;;;34.82;23.09;99605.53;6156612;23;19939;-66
2023/07/21 12:12:19;;;;;;;;;;;;;;;34.90;22.80;99603.66;6156350;23;19915;-66
2023/07/21 12:14:45;;;;;;;;;;;;;;;35.09;23.13;99600.69;6156287;23;19936;-66
2023/07/21 12:17:10;;;;;;;;;;;;;;;35.28;25.83;99599.72;6156720;23;19936;-66
2023/07/21 12:19:35;;;;;;;;;;;;;;;35.54;23.72;99598.00;6155651;23;19920;-66
2023/07/21 12:22:01;;;;;;;;;;;;;;;35.74;24.32;99600.59;6156192;23;20456;-66
2023/07/21 12:24:26;;;;;;;;;;;;;;;35.88;23.68;99608.28;6129918;23;19912;-66
2023/07/21 12:26:51;;;;;;;;;;;;;;;35.98;23.82;99599.22;6156064;23;19916;-66
2023/07/21 12:29:16;;;;;;;;;;;;;;;36.03;23.24;99596.03;6156183;23;19908;-66
2023/07/21 12:31:42;;;;;;;;;;;;;;;36.11;23.33;99603.28;6130113;23;20329;-66
2023/07/21 12:34:08;;;;;;;;;;;;;;;36.10;24.09;99600.88;6156309;23;19979;-66
2023/07/21 12:36:34;;;;;;;;;;;;;;;36.16;23.54;99591.75;6156713;23;19909;-66
2023/07/21 12:38:59;;;;;;;;;;;;;;;36.09;21.34;99590.88;6129989;23;20313;-66
2023/07/21 12:41:25;;;;;;;;;;;;;;;36.17;22.63;99587.75;6130484;23;19991;-66
2023/07/21 12:43:50;;;;;;;;;;;;;;;36.31;23.31;99595.47;6156389;23;19917;-66